Time;durP1;ratioP1;P1;durP2;ratioP2;P2;SDS_P1;SDS_P2;PMS_P1;PMS_P2;Temp;Humidity;BMP_temperature;BMP_pressure;BME280_temperature;BME280_humidity;BME280_pressure;Samples;Min_cycle;Max_cycle;Signal;HPM_P1;HPM_P2
2023/10/18 00:00:25;;;;;;;;;;;;;;;;;;5071798;28;20016;-61
2023/10/18 00:02:51;;;;;;;;;;;;;;;;;;5074346;28;20479;-61
2023/10/18 00:05:18;;;;;;;;;;;;;;;;;;5075723;28;19925;-61
2023/10/18 00:07:44;;;;;;;;;;;;;;;;;;5075580;28;20431;-61
2023/10/18 00:10:10;;;;;;;;;;;;;;;;;;5075823;28;19924;-61
2023/10/18 00:12:37;;;;;;;;;;;;;;;;;;5075750;28;19947;-61
2023/10/18 00:15:05;;;;;;;;;;;;;;;;;;5057880;28;19993;-61
2023/10/18 00:17:31;;;;;;;;;;;;;;;;;;5053850;28;19928;-61
2023/10/18 00:19:57;;;;;;;;;;;;;;;;;;5055406;28;19964;-61
2023/10/18 00:22:23;;;;;;;;;;;;;;;;;;5055569;28;20315;-61
2023/10/18 00:24:49;;;;;;;;;;;;;;;;;;5055413;28;19932;-61
2023/10/18 00:27:15;;;;;;;;;;;;;;;;;;5055238;28;19923;-61
2023/10/18 00:29:43;;;;;;;;;;;;;;;;;;5055217;28;20409;-61
2023/10/18 00:32:09;;;;;;;;;;;;;;;;;;5087361;28;19952;-61
2023/10/18 00:34:35;;;;;;;;;;;;;;;;;;5054089;28;20282;-61
2023/10/18 00:37:01;;;;;;;;;;;;;;;;;;5054949;28;20004;-61
2023/10/18 00:39:27;;;;;;;;;;;;;;;;;;5087412;28;19924;-61
2023/10/18 00:41:53;;;;;;;;;;;;;;;;;;5055115;28;19920;-61
2023/10/18 00:44:21;;;;;;;;;;;;;;;;;;5054915;28;19925;-61
2023/10/18 00:46:47;;;;;;;;;;;;;;;;;;5054860;28;19931;-61
2023/10/18 00:49:16;;;;;;;;;;;;;;;;;;5087159;28;20356;-61
2023/10/18 00:51:43;;;;;;;;;;;;;;;;;;5086690;28;19964;-61
2023/10/18 00:54:11;;;;;;;;;;;;;;;;;;5072075;28;20007;-61
2023/10/18 00:56:38;;;;;;;;;;;;;;;;;;5074034;28;20003;-61
2023/10/18 00:59:07;;;;;;;;;;;;;;;;;;5074126;28;19999;-61
2023/10/18 01:01:34;;;;;;;;;;;;;;;;;;5073767;28;19920;-61
2023/10/18 01:04:04;;;;;;;;;;;;;;;;;;5073547;28;19932;-61
2023/10/18 01:06:30;;;;;;;;;;;;;;;;;;5073300;28;20390;-61
2023/10/18 01:08:56;;;;;;;;;;;;;;;;;;5057066;23;19929;-65
2023/10/18 01:11:31;;;;;;;;;;;;;;;;;;5052784;28;20397;-65
2023/10/18 01:14:00;;;;;;;;;;;;;;;;;;5018930;28;19921;-65
2023/10/18 01:16:31;;;;;;;;;;;;;;;;;;5019470;28;19947;-65
2023/10/18 01:18:57;;;;;;;;;;;;;;;;;;5049645;28;20011;-66
2023/10/18 01:21:23;;;;;;;;;;;;;;;;;;5054377;28;20028;-65
2023/10/18 01:23:52;;;;;;;;;;;;;;;;;;5054348;28;19925;-65
2023/10/18 01:26:17;;;;;;;;;;;;;;;;;;5053645;28;19928;-67
2023/10/18 01:28:43;;;;;;;;;;;;;;;;;;5054231;28;19921;-66
2023/10/18 01:31:09;;;;;;;;;;;;;;;;;;5054398;28;19921;-66
2023/10/18 01:33:38;;;;;;;;;;;;;;;;;;5036205;28;19940;-66
2023/10/18 01:36:05;;;;;;;;;;;;;;;;;;5054125;28;20290;-66
2023/10/18 01:38:31;;;;;;;;;;;;;;;;;;5053928;28;20005;-66
2023/10/18 01:41:00;;;;;;;;;;;;;;;;;;5019520;28;19920;-66
2023/10/18 01:43:28;;;;;;;;;;;;;;;;;;5053358;28;19927;-66
2023/10/18 01:45:54;;;;;;;;;;;;;;;;;;5054092;28;19929;-66
2023/10/18 01:48:20;;;;;;;;;;;;;;;;;;5035819;28;20397;-66
2023/10/18 01:50:46;;;;;;;;;;;;;;;;;;5054097;28;20028;-66
2023/10/18 01:53:21;;;;;;;;;;;;;;;;;;5053820;28;20338;-66
2023/10/18 01:55:51;;;;;;;;;;;;;;;;;;5053640;28;19956;-66
2023/10/18 01:58:17;;;;;;;;;;;;;;;;;;5053804;28;19947;-66
2023/10/18 02:00:44;;;;;;;;;;;;;;;;;;5053875;28;20370;-67
2023/10/18 02:03:11;;;;;;;;;;;;;;;;;;5053525;28;19921;-66
2023/10/18 02:05:37;;;;;;;;;;;;;;;;;;5068983;28;19921;-66
2023/10/18 02:08:05;;;;;;;;;;;;;;;;;;5053504;28;19925;-66
2023/10/18 02:10:32;;;;;;;;;;;;;;;;;;5053183;28;20351;-67
2023/10/18 02:12:58;;;;;;;;;;;;;;;;;;5051913;28;19925;-66
2023/10/18 02:15:24;;;;;;;;;;;;;;;;;;5035390;28;20011;-66
2023/10/18 02:17:56;;;;;;;;;;;;;;;;;;5049284;28;19946;-66
2023/10/18 02:20:26;;;;;;;;;;;;;;;;;;5035331;28;19928;-66
2023/10/18 02:22:55;;;;;;;;;;;;;;;;;;5035208;28;19947;-66
2023/10/18 02:25:36;;;;;;;;;;;;;;;;;;5034402;28;19931;-66
2023/10/18 02:28:08;;;;;;;;;;;;;;;;;;5053203;28;19925;-66
2023/10/18 02:30:34;;;;;;;;;;;;;;;;;;5053409;28;19921;-66
2023/10/18 02:33:02;;;;;;;;;;;;;;;;;;5034957;28;19990;-66
2023/10/18 02:35:28;;;;;;;;;;;;;;;;;;5035030;28;20367;-66
2023/10/18 02:37:54;;;;;;;;;;;;;;;;;;5052944;28;19925;-66
2023/10/18 02:40:29;;;;;;;;;;;;;;;;;;5052820;28;19925;-66
2023/10/18 02:42:57;;;;;;;;;;;;;;;;;;5034685;28;19968;-66
2023/10/18 02:45:23;;;;;;;;;;;;;;;;;;5052916;28;19921;-66
2023/10/18 02:47:51;;;;;;;;;;;;;;;;;;5034864;28;19931;-66
2023/10/18 02:50:17;;;;;;;;;;;;;;;;;;5052563;28;20381;-66
2023/10/18 02:52:43;;;;;;;;;;;;;;;;;;5034681;28;19935;-66
2023/10/18 02:55:13;;;;;;;;;;;;;;;;;;5052385;28;20011;-66
2023/10/18 02:57:42;;;;;;;;;;;;;;;;;;5052646;28;19925;-66
2023/10/18 03:00:11;;;;;;;;;;;;;;;;;;5052380;28;19947;-66
2023/10/18 03:02:38;;;;;;;;;;;;;;;;;;5052559;28;19921;-66
2023/10/18 03:05:05;;;;;;;;;;;;;;;;;;5052293;28;20352;-66
2023/10/18 03:07:31;;;;;;;;;;;;;;;;;;5052579;28;19974;-66
2023/10/18 03:10:57;;;;;;;;;;;;;;;;;;5051942;28;19929;-66
2023/10/18 03:12:53;;;;;;;;;;;;;;;;;;5047257;28;19928;-66
2023/10/18 03:15:21;;;;;;;;;;;;;;;;;;5052288;28;20000;-66
2023/10/18 03:17:49;;;;;;;;;;;;;;;;;;5041143;28;19932;-66
2023/10/18 03:20:22;;;;;;;;;;;;;;;;;;5014329;28;19921;-66
2023/10/18 03:22:51;;;;;;;;;;;;;;;;;;5032310;28;19925;-66
2023/10/18 03:25:18;;;;;;;;;;;;;;;;;;5015134;28;19929;-66
2023/10/18 03:27:50;;;;;;;;;;;;;;;;;;5052274;28;19925;-66
2023/10/18 03:30:19;;;;;;;;;;;;;;;;;;5051910;28;20412;-66
2023/10/18 03:32:49;;;;;;;;;;;;;;;;;;5052177;28;19931;-66
2023/10/18 03:35:15;;;;;;;;;;;;;;;;;;5052157;28;19925;-66
2023/10/18 03:37:46;;;;;;;;;;;;;;;;;;5034388;28;19925;-66
2023/10/18 03:40:24;;;;;;;;;;;;;;;;;;5051693;28;19967;-66
2023/10/18 03:42:51;;;;;;;;;;;;;;;;;;5052000;28;20315;-66
2023/10/18 03:45:33;;;;;;;;;;;;;;;;;;5051751;28;19925;-66
2023/10/18 03:47:59;;;;;;;;;;;;;;;;;;5051786;28;19971;-66
2023/10/18 03:50:35;;;;;;;;;;;;;;;;;;5051616;28;19928;-66
2023/10/18 03:53:01;;;;;;;;;;;;;;;;;;5051911;28;20019;-66
2023/10/18 03:55:36;;;;;;;;;;;;;;;;;;5050238;28;20003;-66
2023/10/18 03:58:04;;;;;;;;;;;;;;;;;;5033799;28;20386;-66
2023/10/18 04:00:37;;;;;;;;;;;;;;;;;;5051759;28;20003;-66
2023/10/18 04:03:08;;;;;;;;;;;;;;;;;;5033754;28;19921;-66
2023/10/18 04:05:49;;;;;;;;;;;;;;;;;;5050205;28;19921;-66
2023/10/18 04:08:17;;;;;;;;;;;;;;;;;;5051660;28;19924;-66
2023/10/18 04:10:43;;;;;;;;;;;;;;;;;;5066831;28;20293;-66
2023/10/18 04:13:12;;;;;;;;;;;;;;;;;;5051610;28;19979;-67
2023/10/18 04:15:39;;;;;;;;;;;;;;;;;;5050710;28;19924;-66
2023/10/18 04:20:34;;;;;;;;;;;;;;;;;;5031587;28;19975;-66
2023/10/18 04:23:00;;;;;;;;;;;;;;;;;;5013883;28;19925;-66
2023/10/18 04:25:26;;;;;;;;;;;;;;;;;;5013487;28;19921;-66
2023/10/18 04:27:51;;;;;;;;;;;;;;;;;;5031713;28;19929;-67
2023/10/18 04:30:21;;;;;;;;;;;;;;;;;;5031550;28;19932;-66
2023/10/18 04:32:53;;;;;;;;;;;;;;;;;;5031402;28;19921;-67
2023/10/18 04:35:25;;;;;;;;;;;;;;;;;;5030706;28;19921;-66
2023/10/18 04:37:51;;;;;;;;;;;;;;;;;;5030791;28;19936;-66
2023/10/18 04:40:25;;;;;;;;;;;;;;;;;;5030442;28;19947;-66
2023/10/18 04:42:51;;;;;;;;;;;;;;;;;;5030639;28;19924;-66
2023/10/18 04:45:18;;;;;;;;;;;;;;;;;;5029150;28;19921;-66
2023/10/18 04:47:49;;;;;;;;;;;;;;;;;;5031402;28;19998;-66
2023/10/18 04:50:18;;;;;;;;;;;;;;;;;;5034058;28;20302;-66
2023/10/18 04:52:47;;;;;;;;;;;;;;;;;;5040833;28;19925;-66
2023/10/18 04:55:14;;;;;;;;;;;;;;;;;;5054104;28;19920;-66
2023/10/18 04:57:40;;;;;;;;;;;;;;;;;;5054576;28;19925;-66
2023/10/18 05:00:56;;;;;;;;;;;;;;;;;;5054738;28;19920;-66
2023/10/18 05:02:52;;;;;;;;;;;;;;;;;;5049764;28;19924;-66
2023/10/18 05:05:18;;;;;;;;;;;;;;;;;;5053512;28;19928;-66
2023/10/18 05:07:48;;;;;;;;;;;;;;;;;;5068986;28;19931;-67
2023/10/18 05:10:14;;;;;;;;;;;;;;;;;;5035512;28;19921;-66
2023/10/18 05:12:47;;;;;;;;;;;;;;;;;;5053594;28;20530;-66
2023/10/18 05:15:29;;;;;;;;;;;;;;;;;;5053710;28;19921;-66
2023/10/18 05:17:59;;;;;;;;;;;;;;;;;;5023308;28;19921;-68
2023/10/18 05:20:41;;;;;;;;;;;;;;;;;;5033566;28;19921;-67
2023/10/18 05:23:07;;;;;;;;;;;;;;;;;;5033351;28;19968;-68
2023/10/18 05:25:45;;;;;;;;;;;;;;;;;;5015383;28;19964;-68
2023/10/18 05:33:47;;;;;;;;;;;;;;;;;;5033261;28;19929;-66
2023/10/18 05:43:53;;;;;;;;;;;;;;;;;;5050864;28;19931;-66
2023/10/18 05:46:20;;;;;;;;;;;;;;;;;;5053381;28;19972;-65
2023/10/18 05:48:46;;;;;;;;;;;;;;;;;;5053766;28;19924;-65
2023/10/18 05:53:50;;;;;;;;;;;;;;;;;;5053612;28;19921;-65
2023/10/18 05:56:20;;;;;;;;;;;;;;;;;;5035581;28;19925;-65
2023/10/18 05:58:46;;;;;;;;;;;;;;;;;;5053260;28;19921;-66
2023/10/18 06:01:13;;;;;;;;;;;;;;;;;;5052978;28;19932;-66
2023/10/18 06:03:39;;;;;;;;;;;;;;;;;;5053331;28;20420;-66
2023/10/18 06:06:05;;;;;;;;;;;;;;;;;;5053702;28;19928;-65
2023/10/18 06:08:31;;;;;;;;;;;;;;;;;;5035221;28;19994;-67
2023/10/18 06:11:01;;;;;;;;;;;;;;;;;;5053355;28;19929;-66
2023/10/18 06:13:30;;;;;;;;;;;;;;;;;;5052838;28;19928;-66
2023/10/18 06:15:58;;;;;;;;;;;;;;;;;;5052442;28;20016;-65
2023/10/18 06:18:37;;;;;;;;;;;;;;;;;;5036629;28;20010;-66
2023/10/18 06:21:08;;;;;;;;;;;;;;;;;;5033121;28;20395;-66
2023/10/18 06:23:37;;;;;;;;;;;;;;;;;;5015255;28;20287;-66
2023/10/18 06:26:27;;;;;;;;;;;;;;;;;;5033160;28;19925;-65
2023/10/18 06:28:53;;;;;;;;;;;;;;;;;;5015009;28;19921;-65
2023/10/18 06:31:19;;;;;;;;;;;;;;;;;;5032997;28;20385;-65
2023/10/18 06:33:45;;;;;;;;;;;;;;;;;;5031619;28;19966;-65
2023/10/18 06:36:14;;;;;;;;;;;;;;;;;;5032963;28;20015;-65
2023/10/18 06:38:42;;;;;;;;;;;;;;;;;;5031959;28;19990;-66
2023/10/18 06:41:08;;;;;;;;;;;;;;;;;;5031946;28;19956;-66
2023/10/18 06:43:36;;;;;;;;;;;;;;;;;;5014112;28;19921;-65
2023/10/18 06:46:04;;;;;;;;;;;;;;;;;;5031980;28;19936;-66
2023/10/18 06:48:31;;;;;;;;;;;;;;;;;;5031855;28;19968;-65
2023/10/18 06:50:57;;;;;;;;;;;;;;;;;;5032259;28;19921;-65
2023/10/18 06:53:25;;;;;;;;;;;;;;;;;;5026355;28;19928;-65
2023/10/18 06:56:13;;;;;;;;;;;;;;;;;;5068079;28;19936;-65
2023/10/18 06:58:45;;;;;;;;;;;;;;;;;;5034552;28;19927;-65
2023/10/18 07:01:14;;;;;;;;;;;;;;;;;;5052539;28;20020;-65
2023/10/18 07:03:42;;;;;;;;;;;;;;;;;;5052435;28;19925;-65
2023/10/18 07:06:16;;;;;;;;;;;;;;;;;;5052500;28;19929;-65
2023/10/18 07:08:44;;;;;;;;;;;;;;;;;;5052073;28;20279;-65
2023/10/18 07:11:16;;;;;;;;;;;;;;;;;;5052082;28;20023;-66
2023/10/18 07:13:48;;;;;;;;;;;;;;;;;;5052297;28;19928;-65
2023/10/18 07:16:25;;;;;;;;;;;;;;;;;;5052414;28;20282;-65
2023/10/18 07:19:04;;;;;;;;;;;;;;;;;;5014331;28;20358;-65
2023/10/18 07:21:32;;;;;;;;;;;;;;;;;;5032419;28;19921;-65
2023/10/18 07:24:02;;;;;;;;;;;;;;;;;;5032182;28;19921;-65
2023/10/18 07:26:29;;;;;;;;;;;;;;;;;;5032081;28;20429;-66
2023/10/18 07:28:55;;;;;;;;;;;;;;;;;;5014246;28;20000;-65
2023/10/18 07:31:24;;;;;;;;;;;;;;;;;;5032010;28;19960;-65
2023/10/18 07:33:50;;;;;;;;;;;;;;;;;;5014151;28;20329;-65
2023/10/18 07:36:19;;;;;;;;;;;;;;;;;;5032241;28;19925;-65
2023/10/18 07:38:48;;;;;;;;;;;;;;;;;;5032021;28;20023;-65
2023/10/18 07:41:14;;;;;;;;;;;;;;;;;;5031996;28;19992;-65
2023/10/18 07:43:43;;;;;;;;;;;;;;;;;;5031701;28;19980;-65
2023/10/18 07:46:09;;;;;;;;;;;;;;;;;;5032205;28;19929;-66
2023/10/18 07:48:37;;;;;;;;;;;;;;;;;;5013995;28;20007;-65
2023/10/18 07:51:08;;;;;;;;;;;;;;;;;;5032148;28;19964;-66
2023/10/18 07:53:35;;;;;;;;;;;;;;;;;;5027102;28;19925;-65
2023/10/18 07:56:01;;;;;;;;;;;;;;;;;;5033827;28;19943;-65
2023/10/18 07:58:32;;;;;;;;;;;;;;;;;;5051727;28;19924;-66
2023/10/18 08:03:27;;;;;;;;;;;;;;;;;;5051703;28;19986;-65
2023/10/18 08:05:55;;;;;;;;;;;;;;;;;;5051491;28;20318;-66
2023/10/18 08:08:24;;;;;;;;;;;;;;;;;;5051482;28;19932;-66
2023/10/18 08:10:50;;;;;;;;;;;;;;;;;;5051341;28;19928;-66
2023/10/18 08:13:16;;;;;;;;;;;;;;;;;;5033420;28;19929;-65
2023/10/18 08:15:50;;;;;;;;;;;;;;;;;;5051694;28;19928;-66
2023/10/18 08:18:16;;;;;;;;;;;;;;;;;;5036098;28;20366;-65
2023/10/18 08:23:35;;;;;;;;;;;;;;;;;;5015583;28;19921;-66
2023/10/18 08:26:03;;;;;;;;;;;;;;;;;;5017436;28;19921;-65
2023/10/18 08:28:38;;;;;;;;;;;;;;;;;;5017573;28;19936;-66
2023/10/18 08:31:04;;;;;;;;;;;;;;;;;;5035544;28;19932;-65
2023/10/18 08:33:30;;;;;;;;;;;;;;;;;;5017517;28;20267;-66
2023/10/18 08:35:58;;;;;;;;;;;;;;;;;;5035106;28;19936;-65
2023/10/18 08:38:26;;;;;;;;;;;;;;;;;;5035226;28;20370;-65
2023/10/18 08:41:05;;;;;;;;;;;;;;;;;;5017276;28;19925;-65
2023/10/18 08:43:31;;;;;;;;;;;;;;;;;;5017355;28;19925;-65
2023/10/18 08:45:57;;;;;;;;;;;;;;;;;;5034979;28;19928;-66
2023/10/18 08:48:29;;;;;;;;;;;;;;;;;;5033688;28;19975;-66
2023/10/18 08:50:55;;;;;;;;;;;;;;;;;;5034795;28;20628;-65
2023/10/18 08:53:22;;;;;;;;;;;;;;;;;;5046460;28;20007;-66
2023/10/18 08:55:51;;;;;;;;;;;;;;;;;;5036712;28;19931;-66
2023/10/18 08:58:17;;;;;;;;;;;;;;;;;;5055037;28;19921;-66
2023/10/18 09:03:13;;;;;;;;;;;;;;;;;;5054922;28;20006;-66
2023/10/18 09:05:39;;;;;;;;;;;;;;;;;;5054628;28;19927;-66
2023/10/18 09:08:05;;;;;;;;;;;;;;;;;;5054672;28;19928;-66
2023/10/18 09:15:34;;;;;;;;;;;;;;;;;;5069632;28;20313;-65
2023/10/18 09:18:03;;;;;;;;;;;;;;;;;;5041489;28;19921;-65
2023/10/18 09:20:29;;;;;;;;;;;;;;;;;;5034532;28;19927;-65
2023/10/18 09:23:01;;;;;;;;;;;;;;;;;;5034397;28;19964;-66
2023/10/18 09:28:11;;;;;;;;;;;;;;;;;;5034592;28;19929;-66
2023/10/18 09:30:37;;;;;;;;;;;;;;;;;;5016291;28;19921;-66
2023/10/18 09:33:03;;;;;;;;;;;;;;;;;;5034301;28;20298;-66
2023/10/18 09:35:29;;;;;;;;;;;;;;;;;;5033880;28;20268;-66
2023/10/18 09:37:55;;;;;;;;;;;;;;;;;;5015383;28;20370;-66
2023/10/18 09:40:21;;;;;;;;;;;;;;;;;;5033475;28;19979;-66
2023/10/18 09:42:47;;;;;;;;;;;;;;;;;;5033554;28;19925;-66
2023/10/18 09:45:14;;;;;;;;;;;;;;;;;;5033038;28;19928;-66
2023/10/18 09:47:39;;;;;;;;;;;;;;;;;;5032970;28;19932;-66
2023/10/18 09:50:07;;;;;;;;;;;;;;;;;;5033047;28;19925;-66
2023/10/18 09:52:33;;;;;;;;;;;;;;;;;;5037758;28;20006;-65
2023/10/18 09:54:59;;;;;;;;;;;;;;;;;;5035081;28;20329;-65
2023/10/18 09:57:35;;;;;;;;;;;;;;;;;;5052867;28;19921;-66
2023/10/18 10:00:11;;;;;;;;;;;;;;;;;;5035456;28;20374;-65
2023/10/18 10:02:37;;;;;;;;;;;;;;;;;;5035721;28;20247;-65
2023/10/18 10:05:11;;;;;;;;;;;;;;;;;;5053532;28;19932;-65
2023/10/18 10:07:39;;;;;;;;;;;;;;;;;;5035336;28;20558;-66
2023/10/18 10:10:07;;;;;;;;;;;;;;;;;;5053348;28;19925;-66
2023/10/18 10:12:33;;;;;;;;;;;;;;;;;;5052921;28;19925;-66
2023/10/18 10:14:59;;;;;;;;;;;;;;;;;;5052331;28;19974;-67
2023/10/18 10:17:28;;;;;;;;;;;;;;;;;;5026843;28;19971;-66
2023/10/18 10:19:54;;;;;;;;;;;;;;;;;;5033293;28;19929;-66
2023/10/18 10:22:24;;;;;;;;;;;;;;;;;;5015203;28;19925;-66
2023/10/18 10:24:53;;;;;;;;;;;;;;;;;;5032701;28;19928;-66
2023/10/18 10:27:27;;;;;;;;;;;;;;;;;;5032350;28;20016;-65
2023/10/18 10:29:59;;;;;;;;;;;;;;;;;;5015030;28;19921;-66
2023/10/18 10:32:26;;;;;;;;;;;;;;;;;;5014162;28;19971;-65
2023/10/18 10:34:52;;;;;;;;;;;;;;;;;;5032315;28;20007;-66
2023/10/18 10:37:24;;;;;;;;;;;;;;;;;;5030602;28;20348;-66
2023/10/18 10:39:50;;;;;;;;;;;;;;;;;;5014163;28;19947;-66
2023/10/18 10:42:28;;;;;;;;;;;;;;;;;;5031951;28;19921;-66
2023/10/18 10:44:54;;;;;;;;;;;;;;;;;;5013903;28;19921;-65
2023/10/18 10:47:20;;;;;;;;;;;;;;;;;;5031744;28;19931;-65
2023/10/18 10:49:47;;;;;;;;;;;;;;;;;;5014973;28;19924;-66
2023/10/18 10:52:18;;;;;;;;;;;;;;;;;;5034950;28;19970;-66
2023/10/18 10:54:45;;;;;;;;;;;;;;;;;;5053001;28;19925;-67
2023/10/18 10:57:11;;;;;;;;;;;;;;;;;;5052376;28;19932;-66
2023/10/18 10:59:41;;;;;;;;;;;;;;;;;;5052613;28;19927;-66
2023/10/18 11:02:07;;;;;;;;;;;;;;;;;;5052641;28;19924;-66
2023/10/18 11:04:46;;;;;;;;;;;;;;;;;;5034402;28;20019;-66
2023/10/18 11:07:13;;;;;;;;;;;;;;;;;;5034335;28;19940;-66
2023/10/18 11:09:39;;;;;;;;;;;;;;;;;;5067486;28;19928;-66
2023/10/18 11:12:07;;;;;;;;;;;;;;;;;;5034091;28;19928;-66
2023/10/18 11:14:35;;;;;;;;;;;;;;;;;;5052518;28;20294;-66
2023/10/18 11:17:09;;;;;;;;;;;;;;;;;;5046997;28;19929;-66
2023/10/18 11:19:40;;;;;;;;;;;;;;;;;;5032427;28;19925;-66
2023/10/18 11:22:06;;;;;;;;;;;;;;;;;;5032356;28;19928;-66
2023/10/18 11:24:32;;;;;;;;;;;;;;;;;;5032285;28;19929;-66
2023/10/18 11:26:58;;;;;;;;;;;;;;;;;;5031940;28;20480;-65
2023/10/18 11:29:24;;;;;;;;;;;;;;;;;;5032179;28;19928;-66
2023/10/18 11:31:50;;;;;;;;;;;;;;;;;;5032162;28;19929;-66
2023/10/18 11:34:21;;;;;;;;;;;;;;;;;;5032242;28;20306;-66
2023/10/18 11:36:49;;;;;;;;;;;;;;;;;;5032184;28;19960;-65
2023/10/18 11:39:18;;;;;;;;;;;;;;;;;;5032244;28;20317;-65
2023/10/18 11:41:49;;;;;;;;;;;;;;;;;;5031329;28;21310;-65
2023/10/18 11:44:16;;;;;;;;;;;;;;;;;;5031884;28;19936;-66
2023/10/18 11:47:05;;;;;;;;;;;;;;;;;;5031985;28;19972;-67
2023/10/18 11:49:28;;;;;;;;;;;;;;;;;;5031604;28;19921;-67
2023/10/18 11:51:54;;;;;;;;;;;;;;;;;;5014010;28;20284;-67
2023/10/18 11:54:20;;;;;;;;;;;;;;;;;;5051460;28;19956;-66
2023/10/18 11:56:46;;;;;;;;;;;;;;;;;;5052636;28;20326;-66
2023/10/18 11:59:12;;;;;;;;;;;;;;;;;;5037714;28;19934;-66
2023/10/18 12:01:45;;;;;;;;;;;;;;;;;;5055750;28;19964;-66
2023/10/18 12:04:15;;;;;;;;;;;;;;;;;;5055813;28;20020;-65
2023/10/18 12:06:42;;;;;;;;;;;;;;;;;;5055881;28;19921;-66
2023/10/18 12:09:25;;;;;;;;;;;;;;;;;;5055537;28;20004;-65
2023/10/18 12:11:51;;;;;;;;;;;;;;;;;;5055763;28;20003;-66
2023/10/18 12:14:18;;;;;;;;;;;;;;;;;;5055447;28;20020;-65
2023/10/18 12:16:44;;;;;;;;;;;;;;;;;;5052836;28;19928;-65
2023/10/18 12:19:10;;;;;;;;;;;;;;;;;;5035451;28;20642;-65
2023/10/18 12:21:36;;;;;;;;;;;;;;;;;;5035699;28;19925;-66
2023/10/18 12:24:04;;;;;;;;;;;;;;;;;;5035436;28;19925;-66
2023/10/18 12:26:30;;;;;;;;;;;;;;;;;;5035547;28;19921;-66
2023/10/18 12:28:56;;;;;;;;;;;;;;;;;;5035192;28;20540;-66
2023/10/18 12:31:27;;;;;;;;;;;;;;;;;;5035541;28;20044;-66
2023/10/18 12:33:58;;;;;;;;;;;;;;;;;;5017298;28;19925;-66
2023/10/18 12:36:32;;;;;;;;;;;;;;;;;;5035255;28;20406;-66
2023/10/18 12:38:58;;;;;;;;;;;;;;;;;;5017358;28;19921;-66
2023/10/18 12:41:36;;;;;;;;;;;;;;;;;;5035078;28;19925;-66
2023/10/18 12:44:03;;;;;;;;;;;;;;;;;;5035080;28;20058;-66
2023/10/18 12:46:29;;;;;;;;;;;;;;;;;;5035161;28;19922;-66
2023/10/18 12:48:57;;;;;;;;;;;;;;;;;;5035013;28;19921;-66
2023/10/18 12:51:30;;;;;;;;;;;;;;;;;;5035169;28;19925;-66
2023/10/18 12:53:56;;;;;;;;;;;;;;;;;;5051068;28;19932;-66
2023/10/18 12:58:54;;;;;;;;;;;;;;;;;;5054711;28;19921;-66
2023/10/18 13:01:22;;;;;;;;;;;;;;;;;;5055006;28;20358;-65
2023/10/18 13:03:57;;;;;;;;;;;;;;;;;;5036609;28;20314;-66
2023/10/18 13:06:30;;;;;;;;;;;;;;;;;;5070043;28;19932;-66
2023/10/18 13:08:56;;;;;;;;;;;;;;;;;;5053431;28;19924;-65
2023/10/18 13:14:06;;;;;;;;;;;;;;;;;;5054585;28;19998;-65
2023/10/18 13:16:32;;;;;;;;;;;;;;;;;;5053514;28;20366;-66
2023/10/18 13:18:58;;;;;;;;;;;;;;;;;;5034627;28;19921;-66
2023/10/18 13:21:27;;;;;;;;;;;;;;;;;;5034521;28;19928;-65
2023/10/18 13:23:56;;;;;;;;;;;;;;;;;;5023411;22;19975;-61
2023/10/18 13:26:27;;;;;;;;;;;;;;;;;;5034177;28;19925;-61
2023/10/18 13:28:59;;;;;;;;;;;;;;;;;;5034156;28;19929;-60
2023/10/18 13:31:30;;;;;;;;;;;;;;;;;;5016072;28;20401;-61
2023/10/18 13:33:56;;;;;;;;;;;;;;;;;;5033999;28;19928;-61
2023/10/18 13:36:22;;;;;;;;;;;;;;;;;;5034233;28;20321;-61
2023/10/18 13:38:49;;;;;;;;;;;;;;;;;;5034156;28;19932;-61
2023/10/18 13:41:15;;;;;;;;;;;;;;;;;;5015966;28;19921;-61
2023/10/18 13:43:41;;;;;;;;;;;;;;;;;;5034190;28;20015;-61
2023/10/18 13:46:16;;;;;;;;;;;;;;;;;;5033666;28;19947;-61
2023/10/18 13:48:43;;;;;;;;;;;;;;;;;;5034097;28;20008;-61
2023/10/18 13:51:10;;;;;;;;;;;;;;;;;;5033965;28;19972;-61
2023/10/18 13:53:36;;;;;;;;;;;;;;;;;;5047381;28;19973;-61
2023/10/18 13:56:02;;;;;;;;;;;;;;;;;;5035616;28;19931;-61
2023/10/18 13:58:31;;;;;;;;;;;;;;;;;;5047159;28;19921;-61
2023/10/18 14:00:58;;;;;;;;;;;;;;;;;;5033462;28;20043;-61
2023/10/18 14:03:24;;;;;;;;;;;;;;;;;;5033587;28;19925;-61
2023/10/18 14:05:50;;;;;;;;;;;;;;;;;;5033551;28;19928;-62
2023/10/18 14:08:21;;;;;;;;;;;;;;;;;;5033552;28;19929;-61
2023/10/18 14:10:47;;;;;;;;;;;;;;;;;;5033577;28;19928;-61
2023/10/18 14:13:14;;;;;;;;;;;;;;;;;;5033331;28;20302;-62
2023/10/18 14:15:43;;;;;;;;;;;;;;;;;;5033248;28;20520;-62
2023/10/18 14:18:09;;;;;;;;;;;;;;;;;;5033140;28;20428;-62
2023/10/18 14:20:38;;;;;;;;;;;;;;;;;;5032240;28;19929;-62
2023/10/18 14:23:07;;;;;;;;;;;;;;;;;;5033452;28;19921;-62
2023/10/18 14:25:33;;;;;;;;;;;;;;;;;;5032873;28;19926;-62
2023/10/18 14:27:58;;;;;;;;;;;;;;;;;;5033252;28;19947;-62
2023/10/18 14:30:27;;;;;;;;;;;;;;;;;;5033011;28;19931;-62
2023/10/18 14:32:58;;;;;;;;;;;;;;;;;;5032893;28;19936;-62
2023/10/18 14:35:25;;;;;;;;;;;;;;;;;;5033052;28;19932;-62
2023/10/18 14:37:51;;;;;;;;;;;;;;;;;;5033123;28;19921;-62
2023/10/18 14:40:23;;;;;;;;;;;;;;;;;;5014874;28;20446;-62
2023/10/18 14:42:50;;;;;;;;;;;;;;;;;;5032752;28;19925;-61
2023/10/18 14:45:16;;;;;;;;;;;;;;;;;;5031897;28;19929;-62
2023/10/18 14:47:42;;;;;;;;;;;;;;;;;;5032189;28;19925;-61
2023/10/18 14:50:10;;;;;;;;;;;;;;;;;;5032023;28;20016;-61
2023/10/18 14:52:42;;;;;;;;;;;;;;;;;;5019124;28;20425;-61
2023/10/18 14:55:11;;;;;;;;;;;;;;;;;;5051474;28;19921;-61
2023/10/18 14:57:38;;;;;;;;;;;;;;;;;;5051309;28;20274;-61
2023/10/18 15:00:05;;;;;;;;;;;;;;;;;;5051520;28;20023;-62
2023/10/18 15:02:31;;;;;;;;;;;;;;;;;;5051289;28;19952;-61
2023/10/18 15:04:57;;;;;;;;;;;;;;;;;;5051764;28;20015;-61
2023/10/18 15:07:23;;;;;;;;;;;;;;;;;;5052231;28;20011;-61
2023/10/18 15:09:49;;;;;;;;;;;;;;;;;;5052126;28;19931;-62
2023/10/18 15:12:17;;;;;;;;;;;;;;;;;;5052093;28;19925;-61
2023/10/18 15:14:43;;;;;;;;;;;;;;;;;;5052190;28;19933;-61
2023/10/18 15:17:10;;;;;;;;;;;;;;;;;;5046222;28;20310;-61
2023/10/18 15:19:36;;;;;;;;;;;;;;;;;;5047694;28;20255;-62
2023/10/18 15:22:03;;;;;;;;;;;;;;;;;;5014416;28;19928;-62
2023/10/18 15:24:29;;;;;;;;;;;;;;;;;;5031940;28;19929;-62
2023/10/18 15:26:55;;;;;;;;;;;;;;;;;;5031572;28;19986;-62
2023/10/18 15:29:21;;;;;;;;;;;;;;;;;;5032262;28;19928;-62
2023/10/18 15:31:47;;;;;;;;;;;;;;;;;;5031755;28;19921;-62
2023/10/18 15:34:13;;;;;;;;;;;;;;;;;;5031949;28;19933;-62
2023/10/18 15:36:40;;;;;;;;;;;;;;;;;;5031715;28;19928;-62
2023/10/18 15:39:09;;;;;;;;;;;;;;;;;;5032146;28;19928;-62
2023/10/18 15:41:37;;;;;;;;;;;;;;;;;;5031707;28;19936;-62
2023/10/18 15:44:03;;;;;;;;;;;;;;;;;;5031827;28;19929;-62
2023/10/18 15:46:29;;;;;;;;;;;;;;;;;;5031816;28;19984;-62
2023/10/18 15:48:57;;;;;;;;;;;;;;;;;;5031669;28;19921;-62
2023/10/18 15:51:23;;;;;;;;;;;;;;;;;;5031602;28;19936;-62
2023/10/18 15:53:49;;;;;;;;;;;;;;;;;;5046873;28;19921;-62
2023/10/18 15:56:15;;;;;;;;;;;;;;;;;;5051467;28;20366;-62
2023/10/18 15:58:47;;;;;;;;;;;;;;;;;;5051840;28;20346;-62
2023/10/18 16:01:13;;;;;;;;;;;;;;;;;;5051365;28;20396;-62
2023/10/18 16:03:39;;;;;;;;;;;;;;;;;;5051373;28;20409;-62
2023/10/18 16:06:05;;;;;;;;;;;;;;;;;;5051534;28;19976;-62
2023/10/18 16:08:31;;;;;;;;;;;;;;;;;;5033664;28;20019;-62
2023/10/18 16:10:57;;;;;;;;;;;;;;;;;;5033423;28;19933;-62
2023/10/18 16:13:23;;;;;;;;;;;;;;;;;;5049901;28;19929;-62
2023/10/18 16:15:49;;;;;;;;;;;;;;;;;;5051370;28;19924;-62
2023/10/18 16:18:15;;;;;;;;;;;;;;;;;;5035594;28;20373;-62
2023/10/18 16:20:41;;;;;;;;;;;;;;;;;;5012964;28;19932;-62
2023/10/18 16:23:07;;;;;;;;;;;;;;;;;;4996626;28;19925;-62
2023/10/18 16:25:33;;;;;;;;;;;;;;;;;;5030496;28;20397;-62
2023/10/18 16:27:59;;;;;;;;;;;;;;;;;;5030370;28;19927;-62
2023/10/18 16:30:25;;;;;;;;;;;;;;;;;;5012729;28;20015;-62
2023/10/18 16:32:54;;;;;;;;;;;;;;;;;;5030240;28;20001;-62
2023/10/18 16:35:20;;;;;;;;;;;;;;;;;;5030669;28;20244;-62
2023/10/18 16:37:46;;;;;;;;;;;;;;;;;;5030277;28;19925;-62
2023/10/18 16:40:16;;;;;;;;;;;;;;;;;;5030753;28;19921;-62
2023/10/18 16:42:42;;;;;;;;;;;;;;;;;;5012885;28;20065;-62
2023/10/18 16:45:08;;;;;;;;;;;;;;;;;;5034317;28;19929;-62
2023/10/18 16:47:34;;;;;;;;;;;;;;;;;;5035131;28;19975;-62
2023/10/18 16:50:00;;;;;;;;;;;;;;;;;;5017228;28;19921;-62
2023/10/18 16:52:25;;;;;;;;;;;;;;;;;;5004620;28;20291;-62
2023/10/18 16:54:52;;;;;;;;;;;;;;;;;;5054928;28;19925;-62
2023/10/18 16:57:18;;;;;;;;;;;;;;;;;;5054705;28;19921;-62
2023/10/18 16:59:44;;;;;;;;;;;;;;;;;;5054815;28;20016;-62
2023/10/18 17:02:10;;;;;;;;;;;;;;;;;;5054858;28;19931;-62
2023/10/18 17:04:36;;;;;;;;;;;;;;;;;;5054595;28;20347;-62
2023/10/18 17:07:03;;;;;;;;;;;;;;;;;;5054760;28;20015;-62
2023/10/18 17:09:29;;;;;;;;;;;;;;;;;;5054673;28;20501;-62
2023/10/18 17:11:54;;;;;;;;;;;;;;;;;;5054641;28;19927;-62
2023/10/18 17:14:20;;;;;;;;;;;;;;;;;;5054455;28;19921;-62
2023/10/18 17:16:46;;;;;;;;;;;;;;;;;;5033655;28;20608;-62
2023/10/18 17:19:14;;;;;;;;;;;;;;;;;;5034495;28;20001;-62
2023/10/18 17:21:40;;;;;;;;;;;;;;;;;;5049745;28;20411;-62
2023/10/18 17:24:09;;;;;;;;;;;;;;;;;;5034241;28;19933;-62
2023/10/18 17:26:35;;;;;;;;;;;;;;;;;;5016496;28;19929;-62
2023/10/18 17:29:02;;;;;;;;;;;;;;;;;;5033510;28;19921;-62
2023/10/18 17:31:29;;;;;;;;;;;;;;;;;;5033888;28;19928;-63